Aviation Digital Data Service (ADDS)

Output produced by METARs form (1518 UTC 18 August 2019)
found at http://www.aviationweather.gov/metar/data/
 
Forecast for: ZPPP (KUNMING/WUJIABA , CN)
Text: TAF ZPPP 180704Z 1812/1912 22004MPS 9999 SCT026 TX28/1908Z TN15/1823Z
Forecast period: 1200 UTC 18 August 2019 to 1200 UTC 19 August 2019
Forecast type: FROM: standard forecast or significant change
Winds: from the SW (220 degrees) at 9 MPH (8 knots; 4.1 m/s)
Visibility: 6 or more miles 10+ km)
Ceiling: at least 12,000 feet AGL
Clouds: scattered clouds at 2600 feet AGL
Weather: no significant weather forecast for this period